Time;durP1;ratioP1;P1;durP2;ratioP2;P2;SDS_P1;SDS_P2;PMS_P1;PMS_P2;Temp;Humidity;BMP_temperature;BMP_pressure;BME280_temperature;BME280_humidity;BME280_pressure;Samples;Min_cycle;Max_cycle;Signal;HPM_P1;HPM_P2
2024/01/20 00:02:24;;;;;;;11.65;8.45;;;;;;;19.74;42.14;97596.47;20811859;28;20042;-79
2024/01/20 00:12:43;;;;;;;12.75;8.35;;;;;;;19.65;42.19;97603.66;20767504;28;20383;-79
2024/01/20 00:23:03;;;;;;;12.82;8.07;;;;;;;19.61;42.41;97598.06;20770852;28;20099;-78
2024/01/20 00:33:23;;;;;;;9.60;7.03;;;;;;;19.56;42.48;97592.75;20758118;28;20050;-76
2024/01/20 00:43:42;;;;;;;11.07;7.43;;;;;;;19.52;42.61;97595.28;20765401;28;20836;-79
2024/01/20 00:54:01;;;;;;;9.70;6.90;;;;;;;19.46;42.44;97591.06;20754554;28;20060;-72
2024/01/20 01:04:20;;;;;;;11.35;6.88;;;;;;;19.41;42.53;97602.00;20803345;28;20769;-73
2024/01/20 01:14:40;;;;;;;10.48;7.07;;;;;;;19.39;42.64;97604.22;20796489;28;20127;-73
2024/01/20 01:24:59;;;;;;;10.40;7.03;;;;;;;19.31;42.53;97608.44;20797915;28;20050;-72
2024/01/20 01:35:18;;;;;;;7.88;6.32;;;;;;;19.28;42.66;97624.44;20789691;28;20057;-73
2024/01/20 01:45:38;;;;;;;7.95;5.82;;;;;;;19.24;42.68;97636.97;20759699;28;20069;-72
2024/01/20 01:55:59;;;;;;;8.60;6.10;;;;;;;19.20;42.78;97642.16;20747743;28;20437;-73
2024/01/20 02:06:19;;;;;;;8.50;5.90;;;;;;;19.15;42.43;97653.88;20753832;28;20410;-72
2024/01/20 02:16:38;;;;;;;9.00;5.70;;;;;;;19.10;42.42;97662.06;20741803;28;20058;-73
2024/01/20 02:26:58;;;;;;;7.38;4.97;;;;;;;19.09;42.69;97646.97;20747192;28;20050;-72
2024/01/20 02:37:17;;;;;;;6.72;5.30;;;;;;;19.04;42.42;97652.47;20791430;28;20053;-73
2024/01/20 02:47:37;;;;;;;6.25;5.00;;;;;;;18.98;42.50;97650.97;20803880;28;20053;-73
2024/01/20 02:57:56;;;;;;;6.95;5.05;;;;;;;18.97;42.38;97660.16;20752081;28;20061;-73
2024/01/20 03:08:15;;;;;;;6.18;4.43;;;;;;;18.91;42.44;97677.56;20763345;28;20080;-73
2024/01/20 03:18:37;;;;;;;5.78;4.55;;;;;;;18.86;42.27;97672.28;20813591;28;20458;-79
2024/01/20 03:28:56;;;;;;;5.30;4.78;;;;;;;18.81;42.12;97677.75;20757580;28;20078;-79
2024/01/20 03:39:16;;;;;;;5.43;4.50;;;;;;;18.76;42.26;97689.41;20801761;28;20495;-78
2024/01/20 03:49:35;;;;;;;5.18;4.50;;;;;;;18.73;42.09;97707.00;20781096;28;20058;-78
2024/01/20 03:59:55;;;;;;;4.80;3.83;;;;;;;18.68;42.20;97708.97;20799567;28;20123;-78
2024/01/20 04:10:14;;;;;;;5.07;3.92;;;;;;;18.65;42.29;97721.16;20745582;28;20484;-78
2024/01/20 04:20:34;;;;;;;6.85;4.07;;;;;;;18.60;42.11;97713.16;20785068;28;20037;-72
2024/01/20 04:30:54;;;;;;;4.18;3.70;;;;;;;18.57;41.87;97713.75;20779620;28;20054;-72
2024/01/20 04:41:13;;;;;;;5.40;3.40;;;;;;;18.54;42.11;97720.56;20786946;28;20462;-72
2024/01/20 04:51:32;;;;;;;5.13;3.53;;;;;;;18.50;42.00;97729.50;20804959;28;20049;-72
2024/01/20 05:01:52;;;;;;;4.78;3.63;;;;;;;18.47;41.83;97732.81;20784046;28;20053;-72
2024/01/20 05:12:12;;;;;;;3.90;3.42;;;;;;;18.42;42.06;97740.97;20799974;28;20050;-72
2024/01/20 05:22:32;;;;;;;3.53;3.20;;;;;;;18.35;42.02;97755.63;20787898;28;20061;-72
2024/01/20 05:32:51;;;;;;;3.80;3.00;;;;;;;18.34;41.97;97770.22;20768884;28;20050;-77
2024/01/20 05:43:11;;;;;;;4.00;3.13;;;;;;;18.33;41.69;97775.91;20765606;28;20403;-81
2024/01/20 05:53:30;;;;;;;4.10;3.20;;;;;;;18.30;42.03;97798.06;20788866;28;20406;-75
2024/01/20 06:03:50;;;;;;;3.47;3.05;;;;;;;18.22;42.14;97798.72;20794488;28;20049;-75
2024/01/20 06:14:09;;;;;;;4.20;3.35;;;;;;;18.21;42.33;97805.19;20795555;28;20049;-75
2024/01/20 06:24:30;;;;;;;3.38;2.92;;;;;;;18.26;42.67;97813.22;20758804;28;20073;-76
2024/01/20 06:34:49;;;;;;;5.63;3.20;;;;;;;18.31;43.26;97819.38;20751420;28;20109;-76
2024/01/20 06:45:09;;;;;;;3.67;2.90;;;;;;;18.31;43.88;97827.47;20739581;28;20097;-75
2024/01/20 06:55:30;;;;;;;3.35;2.80;;;;;;;18.29;44.08;97837.72;20735405;28;20061;-76
2024/01/20 07:05:50;;;;;;;4.75;2.70;;;;;;;18.33;44.18;97837.97;20781352;28;20054;-75
2024/01/20 07:16:10;;;;;;;4.32;3.20;;;;;;;18.23;44.54;97860.47;20760112;28;20072;-74
2024/01/20 07:26:30;;;;;;;5.80;2.88;;;;;;;18.24;44.60;97866.66;20714932;28;20393;-80
2024/01/20 07:36:50;;;;;;;5.70;2.70;;;;;;;18.35;44.23;97879.72;20790877;28;20127;-75
2024/01/20 07:47:10;;;;;;;4.70;2.50;;;;;;;18.47;43.21;97895.50;20779808;28;20054;-74
2024/01/20 07:57:30;;;;;;;6.20;2.53;;;;;;;18.52;42.73;97894.63;20686155;28;20112;-72
2024/01/20 08:07:49;;;;;;;7.30;2.35;;;;;;;18.65;42.63;97904.69;20702678;28;20045;-74
2024/01/20 08:18:09;;;;;;;2.88;2.30;;;;;;;18.70;42.91;97912.72;20772991;28;20048;-74
2024/01/20 08:28:28;;;;;;;5.38;2.58;;;;;;;18.83;43.69;97910.44;20795664;28;20449;-74
2024/01/20 08:38:48;;;;;;;4.53;2.72;;;;;;;18.89;41.94;97925.44;20785923;28;20068;-75
2024/01/20 08:49:07;;;;;;;6.65;3.03;;;;;;;18.99;41.52;97933.41;20776784;28;20058;-74
2024/01/20 08:59:27;;;;;;;6.13;2.70;;;;;;;19.16;41.78;97930.97;20741535;28;20104;-79
2024/01/20 09:09:47;;;;;;;11.68;4.45;;;;;;;19.24;41.84;97948.41;20757090;28;20525;-75
2024/01/20 09:20:08;;;;;;;9.70;4.07;;;;;;;19.38;42.32;97959.28;20764904;28;20053;-77
2024/01/20 09:30:28;;;;;;;11.60;4.70;;;;;;;19.49;44.32;97959.94;20799360;28;20062;-77
2024/01/20 09:40:47;;;;;;;14.57;6.10;;;;;;;19.67;47.04;97960.97;20757857;28;20053;-78
2024/01/20 09:51:07;;;;;;;10.23;7.28;;;;;;;19.85;49.08;97962.06;20722827;28;20125;-78
2024/01/20 10:01:27;;;;;;;13.30;6.47;;;;;;;19.87;48.06;97957.94;20770650;28;20050;-77
2024/01/20 10:11:47;;;;;;;13.38;5.10;;;;;;;20.05;44.52;97963.59;20734967;28;20049;-75
2024/01/20 10:22:11;;;;;;;14.25;4.85;;;;;;;19.31;28.86;97969.69;20803472;28;20129;-71
2024/01/20 10:32:31;;;;;;;8.02;4.25;;;;;;;19.69;35.87;97965.00;20792257;28;20549;-73
2024/01/20 10:42:56;;;;;;;6.35;3.47;;;;;;;19.95;35.84;97957.28;20767706;28;20964;-72
2024/01/20 10:53:16;;;;;;;7.32;3.70;;;;;;;20.02;36.13;97975.00;20756557;28;20061;-73
2024/01/20 11:03:35;;;;;;;37.75;24.27;;;;;;;20.16;38.02;97967.72;20793893;28;20054;-73
2024/01/20 11:13:59;;;;;;;30.42;19.45;;;;;;;20.25;38.20;97952.38;20785681;28;20489;-73
2024/01/20 11:24:18;;;;;;;23.45;15.98;;;;;;;20.37;38.67;97941.06;20793488;28;20049;-73
2024/01/20 11:34:40;;;;;;;27.98;15.63;;;;;;;20.39;39.82;97932.63;20770784;28;20057;-72
2024/01/20 11:45:03;;;;;;;27.92;14.77;;;;;;;20.43;40.19;97928.22;20766648;28;20564;-72
2024/01/20 11:55:23;;;;;;;17.90;12.25;;;;;;;20.50;38.99;97923.19;20786697;28;20483;-72
2024/01/20 12:05:42;;;;;;;19.65;11.40;;;;;;;20.49;39.73;97922.38;20766269;28;20049;-72
2024/01/20 12:16:03;;;;;;;18.23;8.40;;;;;;;20.43;36.37;97917.41;20778543;28;20057;-72
2024/01/20 12:26:23;;;;;;;12.63;6.78;;;;;;;20.38;31.99;97923.69;20802614;28;20056;-72
2024/01/20 12:36:42;;;;;;;7.53;4.25;;;;;;;18.70;23.00;97912.72;20777481;28;20170;-72
2024/01/20 12:47:02;;;;;;;5.78;4.00;;;;;;;19.74;28.43;97918.19;20784219;28;20068;-75
2024/01/20 12:57:23;;;;;;;4.43;3.67;;;;;;;19.99;29.66;97911.47;20752243;28;20107;-75
2024/01/20 13:07:42;;;;;;;7.32;4.00;;;;;;;20.15;30.72;97922.81;20769641;28;20050;-76
2024/01/20 13:18:02;;;;;;;5.75;3.70;;;;;;;20.24;31.92;97907.47;20767274;28;20097;-76
2024/01/20 13:28:23;;;;;;;4.75;3.15;;;;;;;20.29;32.67;97906.59;20818997;28;20046;-76
2024/01/20 13:38:46;;;;;;;4.88;3.47;;;;;;;20.34;33.33;97920.78;20756336;28;20494;-75
2024/01/20 13:49:05;;;;;;;6.50;3.50;;;;;;;20.39;33.48;97927.22;20768788;28;20061;-71
2024/01/20 13:59:26;;;;;;;4.85;3.25;;;;;;;20.43;33.75;97928.22;20764316;28;20054;-72
2024/01/20 14:09:46;;;;;;;5.05;3.30;;;;;;;20.51;33.69;97930.22;20738414;28;20058;-72
2024/01/20 14:20:06;;;;;;;3.83;2.72;;;;;;;20.58;33.50;97936.03;20769409;28;20056;-72
2024/01/20 14:30:26;;;;;;;4.32;2.95;;;;;;;20.54;33.53;97946.66;20741084;28;20137;-72
2024/01/20 14:40:45;;;;;;;5.70;2.83;;;;;;;20.50;33.60;97945.66;20763694;28;20462;-72
2024/01/20 14:51:05;;;;;;;6.32;3.75;;;;;;;20.47;33.40;97959.00;20782871;28;20439;-72
2024/01/20 15:01:24;;;;;;;3.33;2.75;;;;;;;20.43;33.57;97960.72;20749492;28;20050;-72
2024/01/20 15:11:44;;;;;;;4.53;3.05;;;;;;;20.41;33.03;97973.75;20732263;28;20061;-72
2024/01/20 15:22:08;;;;;;;3.20;2.70;;;;;;;20.33;33.67;97972.53;20768217;28;20058;-71
2024/01/20 15:32:27;;;;;;;4.63;3.00;;;;;;;20.38;35.03;97987.84;20764803;28;20455;-72
2024/01/20 15:42:47;;;;;;;3.30;2.67;;;;;;;20.29;35.41;98004.81;20788372;28;20517;-71
2024/01/20 15:53:06;;;;;;;4.93;2.90;;;;;;;20.30;36.65;98017.22;20775881;28;20054;-72
2024/01/20 16:03:25;;;;;;;4.45;2.78;;;;;;;20.25;37.24;98021.94;20750889;28;20462;-71
2024/01/20 16:13:45;;;;;;;3.47;2.50;;;;;;;20.14;38.00;98032.94;20787818;28;20077;-71
2024/01/20 16:24:05;;;;;;;4.80;2.67;;;;;;;20.06;38.94;98038.22;20739376;28;20061;-72
2024/01/20 16:34:25;;;;;;;5.85;2.50;;;;;;;20.00;39.73;98045.63;20752296;28;20050;-71
2024/01/20 16:44:44;;;;;;;2.65;2.30;;;;;;;19.94;40.31;98055.72;20736671;28;20050;-72
2024/01/20 16:55:04;;;;;;;4.15;2.35;;;;;;;19.98;40.34;98064.06;20732542;28;20066;-72
2024/01/20 17:05:24;;;;;;;3.35;2.40;;;;;;;19.92;40.13;98066.03;20780731;28;20050;-71
2024/01/20 17:15:43;;;;;;;10.40;2.90;;;;;;;19.91;40.86;98082.56;20781570;28;20065;-72
2024/01/20 17:26:03;;;;;;;3.67;2.17;;;;;;;19.87;41.33;98085.03;20713101;28;20046;-78
2024/01/20 17:36:23;;;;;;;4.40;2.33;;;;;;;19.86;41.89;98088.88;20760328;28;20042;-79
2024/01/20 17:46:43;;;;;;;5.55;2.55;;;;;;;19.82;42.16;98082.44;20781066;28;20060;-77
2024/01/20 17:57:03;;;;;;;3.97;2.20;;;;;;;19.78;42.54;98091.41;20725121;28;20188;-76
2024/01/20 18:07:22;;;;;;;2.80;2.28;;;;;;;19.72;42.58;98099.63;20701323;28;20373;-77
2024/01/20 18:17:42;;;;;;;5.10;2.03;;;;;;;19.68;42.78;98100.44;20692564;28;20404;-76
2024/01/20 18:28:03;;;;;;;4.70;2.25;;;;;;;19.67;42.80;98113.19;20708927;28;20423;-77
2024/01/20 18:38:23;;;;;;;3.67;2.35;;;;;;;19.65;43.18;98119.97;20686485;28;20411;-71
2024/01/20 18:48:43;;;;;;;5.90;2.30;;;;;;;19.62;43.37;98126.78;20694766;28;20058;-72
2024/01/20 18:59:02;;;;;;;6.45;2.28;;;;;;;19.56;44.42;98127.94;20725915;28;20057;-72
2024/01/20 19:09:22;;;;;;;5.25;2.25;;;;;;;19.52;44.53;98127.72;20724400;28;20061;-72
2024/01/20 19:19:44;;;;;;;6.03;2.38;;;;;;;19.52;44.58;98138.53;20763510;28;20149;-72
2024/01/20 19:30:05;;;;;;;5.47;2.38;;;;;;;19.52;44.82;98145.81;20761291;28;20058;-73
2024/01/20 19:40:24;;;;;;;11.05;2.30;;;;;;;19.52;44.86;98149.34;20780785;28;20050;-76
2024/01/20 19:50:45;;;;;;;6.63;2.28;;;;;;;19.59;44.59;98143.56;20701647;28;20059;-76
2024/01/20 20:01:05;;;;;;;7.20;2.22;;;;;;;19.60;44.47;98153.31;20700305;28;20152;-76
2024/01/20 20:11:25;;;;;;;6.80;2.30;;;;;;;19.66;44.19;98151.31;20748178;28;20056;-76
2024/01/20 20:21:44;;;;;;;7.32;2.20;;;;;;;19.78;44.02;98157.13;20748026;28;20055;-75
2024/01/20 20:32:05;;;;;;;8.85;2.22;;;;;;;19.89;43.61;98169.38;20813877;28;20057;-78
2024/01/20 20:42:25;;;;;;;5.68;1.90;;;;;;;19.92;43.42;98166.13;20791257;28;20080;-79
2024/01/20 20:52:44;;;;;;;6.10;2.13;;;;;;;20.02;43.29;98167.88;20727894;28;20058;-76
2024/01/20 21:03:04;;;;;;;5.97;2.30;;;;;;;20.09;43.12;98162.88;20790267;28;20049;-78
2024/01/20 21:13:23;;;;;;;4.22;2.00;;;;;;;20.14;42.91;98159.28;20818171;28;20046;-76
2024/01/20 21:23:44;;;;;;;3.08;1.98;;;;;;;20.22;42.65;98166.72;20796682;28;20073;-76
2024/01/20 21:34:04;;;;;;;4.25;1.90;;;;;;;20.28;42.37;98162.84;20799555;28;20123;-76
2024/01/20 21:44:25;;;;;;;3.90;1.90;;;;;;;20.31;42.38;98180.41;20774376;28;20045;-76
2024/01/20 21:54:45;;;;;;;10.57;1.90;;;;;;;20.34;42.11;98164.38;20701083;28;20072;-76
2024/01/20 22:05:06;;;;;;;2.58;1.80;;;;;;;20.35;41.94;98170.59;20718022;28;20046;-75
2024/01/20 22:15:26;;;;;;;5.85;1.77;;;;;;;20.33;42.09;98173.59;20735155;28;20487;-76
2024/01/20 22:25:45;;;;;;;3.83;1.90;;;;;;;20.32;41.77;98182.00;20754480;28;20053;-75
2024/01/20 22:36:05;;;;;;;2.90;1.95;;;;;;;20.30;41.72;98185.00;20787513;28;20046;-75
2024/01/20 22:46:24;;;;;;;2.25;1.77;;;;;;;20.23;41.66;98191.88;20762151;28;20049;-75
2024/01/20 22:56:44;;;;;;;4.03;1.92;;;;;;;20.14;41.70;98191.75;20774407;28;20064;-75
2024/01/20 23:07:03;;;;;;;2.90;1.70;;;;;;;20.05;42.16;98188.09;20750627;28;20498;-75
2024/01/20 23:17:24;;;;;;;2.47;1.75;;;;;;;20.01;42.68;98177.06;20790700;28;20054;-75
2024/01/20 23:27:44;;;;;;;2.38;1.80;;;;;;;19.97;43.08;98186.06;20768887;28;20045;-76
2024/01/20 23:38:03;;;;;;;5.47;1.83;;;;;;;19.91;43.04;98183.41;20793018;28;20395;-75
2024/01/20 23:48:23;;;;;;;3.15;1.85;;;;;;;19.84;43.38;98172.19;20773832;28;20400;-75
2024/01/20 23:58:42;;;;;;;2.75;1.98;;;;;;;19.81;43.19;98167.34;20784707;28;20061;-76
